sensor_id;sensor_type;location;lat;lon;timestamp;pressure;altitude;pressure_sealevel;temperature;humidity
70902;BME280;58548;47.210;8.618;2023-02-19T00:02:10;94817.28;;;11.86;41.31
70902;BME280;58548;47.210;8.618;2023-02-19T00:04:35;94907.00;;;12.48;41.05
70902;BME280;58548;47.210;8.618;2023-02-19T00:07:03;94916.50;;;12.49;41.45
70902;BME280;58548;47.210;8.618;2023-02-19T00:09:29;94882.00;;;12.30;41.29
70902;BME280;58548;47.210;8.618;2023-02-19T00:11:57;94908.44;;;12.50;40.79
70902;BME280;58548;47.210;8.618;2023-02-19T00:14:23;94797.53;;;11.83;41.41
70902;BME280;58548;47.210;8.618;2023-02-19T00:16:49;94877.47;;;12.39;41.04
70902;BME280;58548;47.210;8.618;2023-02-19T00:19:20;94884.97;;;12.42;41.21
70902;BME280;58548;47.210;8.618;2023-02-19T00:21:50;94842.97;;;12.20;41.27
70902;BME280;58548;47.210;8.618;2023-02-19T00:24:17;94894.44;;;12.43;40.91
70902;BME280;58548;47.210;8.618;2023-02-19T00:26:46;94898.50;;;12.46;40.90
70902;BME280;58548;47.210;8.618;2023-02-19T00:29:21;94890.22;;;12.42;40.40
70902;BME280;58548;47.210;8.618;2023-02-19T00:31:47;94896.78;;;12.38;40.76
70902;BME280;58548;47.210;8.618;2023-02-19T00:34:13;94894.25;;;12.30;41.33
70902;BME280;58548;47.210;8.618;2023-02-19T00:36:40;94903.56;;;12.32;41.57
70902;BME280;58548;47.210;8.618;2023-02-19T00:39:14;94902.09;;;12.30;40.76
70902;BME280;58548;47.210;8.618;2023-02-19T00:41:44;94885.03;;;12.19;41.69
70902;BME280;58548;47.210;8.618;2023-02-19T00:44:11;94852.00;;;12.03;41.76
70902;BME280;58548;47.210;8.618;2023-02-19T00:46:43;94809.06;;;11.74;41.35
70902;BME280;58548;47.210;8.618;2023-02-19T00:49:16;94809.50;;;11.77;41.29
70902;BME280;58548;47.210;8.618;2023-02-19T00:51:47;94895.53;;;12.34;41.38
70902;BME280;58548;47.210;8.618;2023-02-19T00:54:18;94812.59;;;11.81;41.72
70902;BME280;58548;47.210;8.618;2023-02-19T00:56:50;94885.88;;;12.34;42.25
70902;BME280;58548;47.210;8.618;2023-02-19T00:59:16;94785.50;;;11.74;42.05
70902;BME280;58548;47.210;8.618;2023-02-19T01:01:45;94863.03;;;12.28;42.35
70902;BME280;58548;47.210;8.618;2023-02-19T01:04:14;94854.38;;;12.28;42.33
70902;BME280;58548;47.210;8.618;2023-02-19T01:06:41;94882.97;;;12.44;42.55
70902;BME280;58548;47.210;8.618;2023-02-19T01:09:09;94878.19;;;12.48;41.94
70902;BME280;58548;47.210;8.618;2023-02-19T01:11:40;94895.63;;;12.56;42.78
70902;BME280;58548;47.210;8.618;2023-02-19T01:14:12;94884.59;;;12.60;42.64
70902;BME280;58548;47.210;8.618;2023-02-19T01:16:42;94760.63;;;11.93;42.30
70902;BME280;58548;47.210;8.618;2023-02-19T01:19:08;94756.19;;;11.94;42.05
70902;BME280;58548;47.210;8.618;2023-02-19T01:21:39;94822.25;;;12.41;41.75
70902;BME280;58548;47.210;8.618;2023-02-19T01:24:07;94769.56;;;12.14;41.97
70902;BME280;58548;47.210;8.618;2023-02-19T01:26:33;94876.19;;;12.80;41.51
70902;BME280;58548;47.210;8.618;2023-02-19T01:28:59;94712.97;;;11.83;41.79
70902;BME280;58548;47.210;8.618;2023-02-19T01:31:26;94841.13;;;12.66;41.63
70902;BME280;58548;47.210;8.618;2023-02-19T01:33:55;94858.25;;;12.84;41.63
70902;BME280;58548;47.210;8.618;2023-02-19T01:36:25;94821.78;;;12.67;41.95
70902;BME280;58548;47.210;8.618;2023-02-19T01:38:55;94728.84;;;12.11;41.89
70902;BME280;58548;47.210;8.618;2023-02-19T01:41:23;94835.88;;;12.81;41.80
70902;BME280;58548;47.210;8.618;2023-02-19T01:45:10;94843.88;;;12.94;42.14
70902;BME280;58548;47.210;8.618;2023-02-19T01:46:56;94698.69;;;12.15;42.40
70902;BME280;58548;47.210;8.618;2023-02-19T01:49:27;94856.16;;;13.16;42.12
70902;BME280;58548;47.210;8.618;2023-02-19T01:54:32;94849.09;;;13.31;42.80
70902;BME280;58548;47.210;8.618;2023-02-19T01:57:05;94820.84;;;13.33;42.67
70902;BME280;58548;47.210;8.618;2023-02-19T01:59:33;94809.47;;;13.26;43.22
70902;BME280;58548;47.210;8.618;2023-02-19T02:02:00;94811.56;;;13.37;43.48
70902;BME280;58548;47.210;8.618;2023-02-19T02:04:30;94854.31;;;13.75;42.91
70902;BME280;58548;47.210;8.618;2023-02-19T02:07:01;94844.91;;;13.87;42.81
70902;BME280;58548;47.210;8.618;2023-02-19T02:09:29;94755.50;;;13.38;42.13
70902;BME280;58548;47.210;8.618;2023-02-19T02:12:19;94856.91;;;13.96;42.80
70902;BME280;58548;47.210;8.618;2023-02-19T02:14:47;94817.16;;;13.78;42.17
70902;BME280;58548;47.210;8.618;2023-02-19T02:17:19;94850.69;;;14.04;42.46
70902;BME280;58548;47.210;8.618;2023-02-19T02:20:17;94841.59;;;14.07;42.04
70902;BME280;58548;47.210;8.618;2023-02-19T02:33:57;94800.88;;;14.24;42.11
70902;BME280;58548;47.210;8.618;2023-02-19T02:36:37;94817.56;;;14.45;42.27
70902;BME280;58548;47.210;8.618;2023-02-19T02:39:10;94707.38;;;13.88;42.58
70902;BME280;58548;47.210;8.618;2023-02-19T02:41:48;94815.69;;;14.74;42.31
70902;BME280;58548;47.210;8.618;2023-02-19T02:44:36;94820.56;;;14.84;42.23
70902;BME280;58548;47.210;8.618;2023-02-19T02:47:05;94801.56;;;14.88;42.01
70902;BME280;58548;47.210;8.618;2023-02-19T02:49:33;94802.41;;;15.09;41.87
70902;BME280;58548;47.210;8.618;2023-02-19T02:52:23;94759.09;;;14.98;41.37
70902;BME280;58548;47.210;8.618;2023-02-19T02:55:10;94722.28;;;14.78;41.04
70902;BME280;58548;47.210;8.618;2023-02-19T02:57:37;94645.75;;;14.39;41.17
70902;BME280;58548;47.210;8.618;2023-02-19T03:00:03;94685.84;;;14.75;41.07
70902;BME280;58548;47.210;8.618;2023-02-19T03:02:32;94664.97;;;14.67;40.82
70902;BME280;58548;47.210;8.618;2023-02-19T03:07:52;94672.69;;;14.61;40.68
70902;BME280;58548;47.210;8.618;2023-02-19T03:10:35;94774.31;;;15.16;40.79
70902;BME280;58548;47.210;8.618;2023-02-19T03:13:09;94756.28;;;14.93;40.72
70902;BME280;58548;47.210;8.618;2023-02-19T03:16:07;94749.78;;;14.82;40.77
70902;BME280;58548;47.210;8.618;2023-02-19T03:18:58;94785.41;;;15.05;40.65
70902;BME280;58548;47.210;8.618;2023-02-19T03:24:22;94754.63;;;14.85;40.80
70902;BME280;58548;47.210;8.618;2023-02-19T03:27:10;94690.63;;;14.51;40.97
70902;BME280;58548;47.210;8.618;2023-02-19T03:29:43;94779.75;;;15.08;40.65
70902;BME280;58548;47.210;8.618;2023-02-19T03:32:23;94692.25;;;14.45;40.58
70902;BME280;58548;47.210;8.618;2023-02-19T03:34:58;94684.31;;;14.32;40.57
70902;BME280;58548;47.210;8.618;2023-02-19T03:37:38;94790.25;;;14.95;40.71
70902;BME280;58548;47.210;8.618;2023-02-19T03:40:09;94772.41;;;14.83;40.92
70902;BME280;58548;47.210;8.618;2023-02-19T03:42:42;94794.91;;;14.92;40.66
70902;BME280;58548;47.210;8.618;2023-02-19T03:48:24;94822.97;;;14.72;40.60
70902;BME280;58548;47.210;8.618;2023-02-19T03:56:47;94666.09;;;13.68;41.24
70902;BME280;58548;47.210;8.618;2023-02-19T03:59:58;94791.75;;;14.55;41.56
70902;BME280;58548;47.210;8.618;2023-02-19T04:02:34;94694.53;;;14.07;41.42
70902;BME280;58548;47.210;8.618;2023-02-19T04:05:23;94762.03;;;14.61;41.27
70902;BME280;58548;47.210;8.618;2023-02-19T04:07:57;94799.56;;;14.90;41.13
70902;BME280;58548;47.210;8.618;2023-02-19T04:10:26;94809.69;;;15.07;41.24
70902;BME280;58548;47.210;8.618;2023-02-19T04:13:23;94688.16;;;14.29;41.03
70902;BME280;58548;47.210;8.618;2023-02-19T04:15:52;94832.19;;;15.16;40.91
70902;BME280;58548;47.210;8.618;2023-02-19T04:18:27;94707.78;;;14.33;40.98
70902;BME280;58548;47.210;8.618;2023-02-19T04:20:59;94788.25;;;15.03;40.92
70902;BME280;58548;47.210;8.618;2023-02-19T04:23:32;94822.69;;;15.29;40.86
70902;BME280;58548;47.210;8.618;2023-02-19T04:26:03;94810.97;;;15.38;40.52
70902;BME280;58548;47.210;8.618;2023-02-19T04:28:30;94675.25;;;14.48;40.38
70902;BME280;58548;47.210;8.618;2023-02-19T04:30:58;94824.94;;;15.52;40.28
70902;BME280;58548;47.210;8.618;2023-02-19T04:33:24;94778.38;;;15.32;40.18
70902;BME280;58548;47.210;8.618;2023-02-19T04:35:54;94796.19;;;15.50;39.88
70902;BME280;58548;47.210;8.618;2023-02-19T04:38:22;94804.91;;;15.58;39.75
70902;BME280;58548;47.210;8.618;2023-02-19T04:40:48;94679.38;;;14.84;39.83
70902;BME280;58548;47.210;8.618;2023-02-19T04:43:19;94675.38;;;15.02;39.63
70902;BME280;58548;47.210;8.618;2023-02-19T04:45:45;94768.63;;;15.73;39.45
70902;BME280;58548;47.210;8.618;2023-02-19T04:48:13;94755.88;;;15.70;39.22
70902;BME280;58548;47.210;8.618;2023-02-19T04:50:42;94761.56;;;15.67;39.67
70902;BME280;58548;47.210;8.618;2023-02-19T04:53:08;94748.63;;;15.45;39.34
70902;BME280;58548;47.210;8.618;2023-02-19T04:55:38;94684.06;;;15.22;39.32
70902;BME280;58548;47.210;8.618;2023-02-19T04:58:04;94773.50;;;15.76;38.83
70902;BME280;58548;47.210;8.618;2023-02-19T05:00:34;94653.09;;;15.04;38.76
70902;BME280;58548;47.210;8.618;2023-02-19T05:03:06;94662.81;;;15.11;38.81
70902;BME280;58548;47.210;8.618;2023-02-19T05:05:34;94759.09;;;15.79;38.68
70902;BME280;58548;47.210;8.618;2023-02-19T05:08:02;94797.19;;;15.90;39.10
70902;BME280;58548;47.210;8.618;2023-02-19T05:10:31;94703.66;;;15.20;38.83
70902;BME280;58548;47.210;8.618;2023-02-19T05:12:59;94794.16;;;15.93;38.36
70902;BME280;58548;47.210;8.618;2023-02-19T05:15:30;94798.41;;;15.94;38.61
70902;BME280;58548;47.210;8.618;2023-02-19T05:17:56;94770.06;;;15.76;38.55
70902;BME280;58548;47.210;8.618;2023-02-19T05:20:24;94706.50;;;15.45;38.41
70902;BME280;58548;47.210;8.618;2023-02-19T05:22:50;94783.44;;;15.94;38.59
70902;BME280;58548;47.210;8.618;2023-02-19T05:25:19;94807.13;;;16.01;38.73
70902;BME280;58548;47.210;8.618;2023-02-19T05:27:45;94785.06;;;15.89;38.55
70902;BME280;58548;47.210;8.618;2023-02-19T05:30:11;94801.22;;;16.06;38.42
70902;BME280;58548;47.210;8.618;2023-02-19T05:32:39;94710.75;;;15.53;38.73
70902;BME280;58548;47.210;8.618;2023-02-19T05:35:07;94811.75;;;16.19;38.49
70902;BME280;58548;47.210;8.618;2023-02-19T05:37:33;94814.13;;;16.34;38.30
70902;BME280;58548;47.210;8.618;2023-02-19T05:39:59;94813.38;;;16.13;38.72
70902;BME280;58548;47.210;8.618;2023-02-19T05:42:30;94818.63;;;16.27;38.53
70902;BME280;58548;47.210;8.618;2023-02-19T05:44:55;94694.38;;;15.44;38.51
70902;BME280;58548;47.210;8.618;2023-02-19T05:47:24;94634.06;;;15.16;38.28
70902;BME280;58548;47.210;8.618;2023-02-19T05:49:52;94803.16;;;16.37;38.41
70902;BME280;58548;47.210;8.618;2023-02-19T05:52:18;94714.53;;;15.84;38.09
70902;BME280;58548;47.210;8.618;2023-02-19T05:54:46;94819.53;;;16.53;38.28
70902;BME280;58548;47.210;8.618;2023-02-19T05:57:12;94800.94;;;16.41;38.13
70902;BME280;58548;47.210;8.618;2023-02-19T05:59:37;94767.56;;;16.15;38.17
70902;BME280;58548;47.210;8.618;2023-02-19T06:02:11;94809.25;;;16.45;38.14
70902;BME280;58548;47.210;8.618;2023-02-19T06:04:37;94812.84;;;16.57;38.21
70902;BME280;58548;47.210;8.618;2023-02-19T06:07:05;94832.31;;;16.56;38.19
70902;BME280;58548;47.210;8.618;2023-02-19T06:09:31;94785.00;;;16.09;38.21
70902;BME280;58548;47.210;8.618;2023-02-19T06:11:57;94828.28;;;16.47;38.45
70902;BME280;58548;47.210;8.618;2023-02-19T06:14:25;94834.16;;;16.49;38.14
70902;BME280;58548;47.210;8.618;2023-02-19T06:16:53;94781.16;;;16.18;38.13
70902;BME280;58548;47.210;8.618;2023-02-19T06:19:21;94828.28;;;16.47;38.05
70902;BME280;58548;47.210;8.618;2023-02-19T06:21:49;94720.84;;;15.70;37.72
70902;BME280;58548;47.210;8.618;2023-02-19T06:24:18;94835.66;;;16.18;37.99
70902;BME280;58548;47.210;8.618;2023-02-19T06:26:43;94821.69;;;16.17;38.16
70902;BME280;58548;47.210;8.618;2023-02-19T06:29:09;94811.97;;;16.04;38.00
70902;BME280;58548;47.210;8.618;2023-02-19T06:31:37;94852.66;;;16.28;38.06
70902;BME280;58548;47.210;8.618;2023-02-19T06:34:06;94720.84;;;15.49;38.08
70902;BME280;58548;47.210;8.618;2023-02-19T06:36:34;94824.69;;;16.27;37.79
70902;BME280;58548;47.210;8.618;2023-02-19T06:39:04;94837.44;;;16.37;38.27
70902;BME280;58548;47.210;8.618;2023-02-19T06:41:30;94830.41;;;16.11;38.37
70902;BME280;58548;47.210;8.618;2023-02-19T06:43:57;94850.66;;;16.24;37.94
70902;BME280;58548;47.210;8.618;2023-02-19T06:46:25;94836.91;;;16.08;38.20
70902;BME280;58548;47.210;8.618;2023-02-19T06:48:56;94853.50;;;16.16;38.21
70902;BME280;58548;47.210;8.618;2023-02-19T06:51:22;94839.94;;;16.05;38.11
70902;BME280;58548;47.210;8.618;2023-02-19T06:53:49;94882.25;;;16.31;37.50
70902;BME280;58548;47.210;8.618;2023-02-19T06:56:30;94907.38;;;16.33;37.90
70902;BME280;58548;47.210;8.618;2023-02-19T06:59:01;94800.44;;;15.65;37.90
70902;BME280;58548;47.210;8.618;2023-02-19T07:01:33;94761.78;;;15.45;37.52
70902;BME280;58548;47.210;8.618;2023-02-19T07:04:02;94721.50;;;15.25;37.61
70902;BME280;58548;47.210;8.618;2023-02-19T07:06:30;94875.59;;;16.15;37.94
70902;BME280;58548;47.210;8.618;2023-02-19T07:08:57;94919.94;;;16.51;37.69
70902;BME280;58548;47.210;8.618;2023-02-19T07:11:25;94906.97;;;16.50;37.73
70902;BME280;58548;47.210;8.618;2023-02-19T07:13:57;94927.03;;;16.64;37.54
70902;BME280;58548;47.210;8.618;2023-02-19T07:16:24;94938.16;;;16.73;37.32
70902;BME280;58548;47.210;8.618;2023-02-19T07:18:50;94914.47;;;16.60;37.36
70902;BME280;58548;47.210;8.618;2023-02-19T07:21:19;94827.78;;;16.04;37.14
70902;BME280;58548;47.210;8.618;2023-02-19T07:23:47;94861.59;;;16.27;37.24
70902;BME280;58548;47.210;8.618;2023-02-19T07:26:15;94955.53;;;17.08;36.71
70902;BME280;58548;47.210;8.618;2023-02-19T07:28:46;94946.19;;;17.12;36.39
70902;BME280;58548;47.210;8.618;2023-02-19T07:31:14;94855.25;;;16.55;36.47
70902;BME280;58548;47.210;8.618;2023-02-19T07:33:45;94970.84;;;17.38;35.53
70902;BME280;58548;47.210;8.618;2023-02-19T07:36:13;94868.94;;;16.78;35.81
70902;BME280;58548;47.210;8.618;2023-02-19T07:38:41;94956.28;;;17.28;35.87
70902;BME280;58548;47.210;8.618;2023-02-19T07:41:10;94963.09;;;17.43;35.79
70902;BME280;58548;47.210;8.618;2023-02-19T07:43:37;94981.22;;;17.78;35.02
70902;BME280;58548;47.210;8.618;2023-02-19T07:46:08;94958.13;;;17.92;34.85
70902;BME280;58548;47.210;8.618;2023-02-19T07:48:39;94928.63;;;18.02;34.30
70902;BME280;58548;47.210;8.618;2023-02-19T07:51:14;94965.41;;;18.54;34.50
70902;BME280;58548;47.210;8.618;2023-02-19T07:53:48;94901.28;;;18.59;34.01
70902;BME280;58548;47.210;8.618;2023-02-19T07:56:18;94914.09;;;18.99;32.61
70902;BME280;58548;47.210;8.618;2023-02-19T07:58:47;94950.94;;;19.68;31.92
70902;BME280;58548;47.210;8.618;2023-02-19T08:01:16;95018.19;;;20.28;31.25
70902;BME280;58548;47.210;8.618;2023-02-19T08:03:45;94922.16;;;19.84;31.29
70902;BME280;58548;47.210;8.618;2023-02-19T08:06:11;94896.25;;;19.86;30.85
70902;BME280;58548;47.210;8.618;2023-02-19T08:08:40;94916.66;;;19.97;30.42
70902;BME280;58548;47.210;8.618;2023-02-19T08:11:06;95008.31;;;20.59;29.77
70902;BME280;58548;47.210;8.618;2023-02-19T08:13:51;94911.47;;;19.91;29.93
70902;BME280;58548;47.210;8.618;2023-02-19T08:16:18;94919.72;;;19.82;29.84
70902;BME280;58548;47.210;8.618;2023-02-19T08:18:46;95029.88;;;20.51;29.69
70902;BME280;58548;47.210;8.618;2023-02-19T08:21:12;95037.34;;;20.30;30.14
70902;BME280;58548;47.210;8.618;2023-02-19T08:23:39;94956.09;;;19.63;31.32
70902;BME280;58548;47.210;8.618;2023-02-19T08:26:07;94939.44;;;19.25;31.99
70902;BME280;58548;47.210;8.618;2023-02-19T08:28:36;94936.53;;;19.15;31.97
70902;BME280;58548;47.210;8.618;2023-02-19T08:31:05;95033.72;;;19.64;31.92
70902;BME280;58548;47.210;8.618;2023-02-19T08:33:34;94988.66;;;19.33;32.18
70902;BME280;58548;47.210;8.618;2023-02-19T08:36:04;94926.41;;;18.68;33.46
70902;BME280;58548;47.210;8.618;2023-02-19T08:38:34;94945.53;;;18.70;33.04
70902;BME280;58548;47.210;8.618;2023-02-19T08:41:05;95048.00;;;19.07;33.81
70902;BME280;58548;47.210;8.618;2023-02-19T08:43:32;95044.63;;;18.93;33.84
70902;BME280;58548;47.210;8.618;2023-02-19T08:45:58;94947.84;;;18.16;34.32
70902;BME280;58548;47.210;8.618;2023-02-19T08:48:27;95054.41;;;18.67;34.34
70902;BME280;58548;47.210;8.618;2023-02-19T08:51:00;94946.00;;;18.16;34.56
70902;BME280;58548;47.210;8.618;2023-02-19T08:53:30;94951.31;;;18.16;34.21
70902;BME280;58548;47.210;8.618;2023-02-19T08:55:57;95048.94;;;18.68;34.34
70902;BME280;58548;47.210;8.618;2023-02-19T08:58:23;95054.88;;;18.64;34.67
70902;BME280;58548;47.210;8.618;2023-02-19T09:00:52;95049.31;;;18.72;34.17
70902;BME280;58548;47.210;8.618;2023-02-19T09:03:18;95051.34;;;18.70;34.00
70902;BME280;58548;47.210;8.618;2023-02-19T09:05:44;95061.06;;;18.76;34.57
70902;BME280;58548;47.210;8.618;2023-02-19T09:08:13;95040.50;;;18.78;34.41
70902;BME280;58548;47.210;8.618;2023-02-19T09:10:40;95043.94;;;18.79;34.53
70902;BME280;58548;47.210;8.618;2023-02-19T09:13:08;94971.06;;;18.39;33.31
70902;BME280;58548;47.210;8.618;2023-02-19T09:15:37;94997.81;;;18.49;33.87
70902;BME280;58548;47.210;8.618;2023-02-19T09:18:05;95008.28;;;18.63;33.40
70902;BME280;58548;47.210;8.618;2023-02-19T09:20:35;94964.28;;;18.43;33.02
70902;BME280;58548;47.210;8.618;2023-02-19T09:23:04;94945.13;;;18.22;32.90
70902;BME280;58548;47.210;8.618;2023-02-19T09:25:30;95023.44;;;18.74;33.14
70902;BME280;58548;47.210;8.618;2023-02-19T09:27:58;95053.56;;;18.98;32.65
70902;BME280;58548;47.210;8.618;2023-02-19T09:30:24;95047.50;;;18.91;33.41
70902;BME280;58548;47.210;8.618;2023-02-19T09:32:55;95032.06;;;18.88;33.33
70902;BME280;58548;47.210;8.618;2023-02-19T09:35:23;95057.09;;;18.86;33.41
70902;BME280;58548;47.210;8.618;2023-02-19T09:37:52;94978.56;;;18.42;33.31
70902;BME280;58548;47.210;8.618;2023-02-19T09:40:18;95043.97;;;19.04;33.67
70902;BME280;58548;47.210;8.618;2023-02-19T09:42:48;94935.59;;;18.47;32.95
70902;BME280;58548;47.210;8.618;2023-02-19T09:45:22;95042.94;;;19.24;33.36
70902;BME280;58548;47.210;8.618;2023-02-19T09:47:55;95045.88;;;19.34;32.90
70902;BME280;58548;47.210;8.618;2023-02-19T09:50:35;95041.16;;;19.36;32.65
70902;BME280;58548;47.210;8.618;2023-02-19T09:53:28;94948.16;;;18.95;32.71
70902;BME280;58548;47.210;8.618;2023-02-19T09:56:03;95043.06;;;19.66;32.54
70902;BME280;58548;47.210;8.618;2023-02-19T09:58:35;94942.03;;;19.13;32.25
70902;BME280;58548;47.210;8.618;2023-02-19T10:01:04;95059.75;;;19.85;31.69
70902;BME280;58548;47.210;8.618;2023-02-19T10:03:36;94965.41;;;19.35;31.50
70902;BME280;58548;47.210;8.618;2023-02-19T10:06:25;94970.09;;;19.33;31.66
70902;BME280;58548;47.210;8.618;2023-02-19T10:09:20;95055.78;;;19.95;31.46
70902;BME280;58548;47.210;8.618;2023-02-19T10:11:53;95056.81;;;19.94;32.04
70902;BME280;58548;47.210;8.618;2023-02-19T10:14:38;95022.28;;;19.82;31.66
70902;BME280;58548;47.210;8.618;2023-02-19T10:17:23;94960.59;;;19.44;32.24
70902;BME280;58548;47.210;8.618;2023-02-19T10:19:53;95058.16;;;20.15;31.30
70902;BME280;58548;47.210;8.618;2023-02-19T10:22:20;95054.84;;;20.19;32.16
70902;BME280;58548;47.210;8.618;2023-02-19T10:24:52;94971.78;;;19.77;31.40
70902;BME280;58548;47.210;8.618;2023-02-19T10:27:21;94951.56;;;19.64;31.15
70902;BME280;58548;47.210;8.618;2023-02-19T10:29:50;94954.38;;;19.69;31.29
70902;BME280;58548;47.210;8.618;2023-02-19T10:32:21;95065.38;;;20.38;31.26
70902;BME280;58548;47.210;8.618;2023-02-19T10:35:17;95057.00;;;20.53;30.73
70902;BME280;58548;47.210;8.618;2023-02-19T10:37:49;94957.47;;;19.96;31.03
70902;BME280;58548;47.210;8.618;2023-02-19T10:40:21;95058.00;;;20.83;30.90
70902;BME280;58548;47.210;8.618;2023-02-19T10:43:03;95060.06;;;20.92;30.52
70902;BME280;58548;47.210;8.618;2023-02-19T10:45:48;95042.06;;;20.94;29.84
70902;BME280;58548;47.210;8.618;2023-02-19T10:48:30;95059.00;;;21.29;29.66
70902;BME280;58548;47.210;8.618;2023-02-19T10:51:05;95041.81;;;21.32;29.67
70902;BME280;58548;47.210;8.618;2023-02-19T10:53:42;95056.19;;;21.60;29.55
70902;BME280;58548;47.210;8.618;2023-02-19T10:56:25;95057.69;;;21.79;29.14
70902;BME280;58548;47.210;8.618;2023-02-19T10:58:52;95009.75;;;21.62;28.87
70902;BME280;58548;47.210;8.618;2023-02-19T11:01:24;95029.94;;;21.75;28.71
70902;BME280;58548;47.210;8.618;2023-02-19T11:04:17;95044.41;;;21.96;28.82
70902;BME280;58548;47.210;8.618;2023-02-19T11:06:47;94959.28;;;21.50;27.94
70902;BME280;58548;47.210;8.618;2023-02-19T11:09:25;95056.97;;;22.13;28.48
70902;BME280;58548;47.210;8.618;2023-02-19T11:11:53;94949.78;;;21.66;27.97
70902;BME280;58548;47.210;8.618;2023-02-19T11:14:22;95000.66;;;22.04;27.98
70902;BME280;58548;47.210;8.618;2023-02-19T11:21:48;94949.78;;;21.66;27.58
70902;BME280;58548;47.210;8.618;2023-02-19T11:24:30;95041.91;;;22.19;27.14
70902;BME280;58548;47.210;8.618;2023-02-19T11:27:01;94995.84;;;22.01;27.09
70902;BME280;58548;47.210;8.618;2023-02-19T11:29:29;94931.97;;;21.67;27.70
70902;BME280;58548;47.210;8.618;2023-02-19T11:34:46;95020.41;;;22.37;27.39
70902;BME280;58548;47.210;8.618;2023-02-19T11:37:15;95017.50;;;22.39;27.50
70902;BME280;58548;47.210;8.618;2023-02-19T11:39:44;94958.94;;;22.05;26.84
70902;BME280;58548;47.210;8.618;2023-02-19T11:42:36;95022.78;;;22.51;27.54
70902;BME280;58548;47.210;8.618;2023-02-19T11:45:28;95016.31;;;22.64;27.55
70902;BME280;58548;47.210;8.618;2023-02-19T11:53:33;94930.56;;;22.10;27.50
70902;BME280;58548;47.210;8.618;2023-02-19T11:59:25;95026.50;;;22.84;28.14
70902;BME280;58548;47.210;8.618;2023-02-19T12:18:27;95016.09;;;22.65;28.76
70902;BME280;58548;47.210;8.618;2023-02-19T12:21:21;95018.00;;;22.53;29.03
70902;BME280;58548;47.210;8.618;2023-02-19T12:32:24;95003.00;;;22.01;29.18
70902;BME280;58548;47.210;8.618;2023-02-19T12:35:27;95010.00;;;21.90;29.68
70902;BME280;58548;47.210;8.618;2023-02-19T12:38:29;95004.78;;;21.66;30.05
70902;BME280;58548;47.210;8.618;2023-02-19T12:44:00;94980.06;;;21.53;30.27
70902;BME280;58548;47.210;8.618;2023-02-19T12:46:38;94977.97;;;21.56;30.37
70902;BME280;58548;47.210;8.618;2023-02-19T12:49:14;95009.81;;;21.79;30.27
70902;BME280;58548;47.210;8.618;2023-02-19T12:51:48;94980.38;;;21.69;29.94
70902;BME280;58548;47.210;8.618;2023-02-19T12:54:19;95014.84;;;21.93;29.14
70902;BME280;58548;47.210;8.618;2023-02-19T12:59:26;95012.69;;;21.78;28.98
70902;BME280;58548;47.210;8.618;2023-02-19T13:07:29;94993.69;;;21.04;29.83
70902;BME280;58548;47.210;8.618;2023-02-19T13:10:21;95016.66;;;20.99;30.14
70902;BME280;58548;47.210;8.618;2023-02-19T13:12:55;95000.34;;;20.59;30.24
70902;BME280;58548;47.210;8.618;2023-02-19T13:18:04;95038.41;;;20.41;30.61
70902;BME280;58548;47.210;8.618;2023-02-19T13:20:43;95003.94;;;19.99;31.35
70902;BME280;58548;47.210;8.618;2023-02-19T13:23:27;94934.34;;;19.42;31.25
70902;BME280;58548;47.210;8.618;2023-02-19T13:29:00;95019.81;;;19.68;31.59
70902;BME280;58548;47.210;8.618;2023-02-19T13:36:46;95018.97;;;19.37;32.12
70902;BME280;58548;47.210;8.618;2023-02-19T13:39:18;95045.16;;;19.46;32.13
70902;BME280;58548;47.210;8.618;2023-02-19T13:41:53;94977.94;;;18.84;32.82
70902;BME280;58548;47.210;8.618;2023-02-19T13:44:39;95029.03;;;19.10;32.51
70902;BME280;58548;47.210;8.618;2023-02-19T13:50:23;94947.38;;;18.44;32.89
70902;BME280;58548;47.210;8.618;2023-02-19T13:52:53;95025.47;;;18.97;33.53
70902;BME280;58548;47.210;8.618;2023-02-19T14:01:20;95033.28;;;18.86;33.96
70902;BME280;58548;47.210;8.618;2023-02-19T14:04:19;95039.56;;;18.91;33.65
70902;BME280;58548;47.210;8.618;2023-02-19T14:09:47;95044.63;;;18.93;33.69
70902;BME280;58548;47.210;8.618;2023-02-19T14:12:18;95039.31;;;18.99;33.14
70902;BME280;58548;47.210;8.618;2023-02-19T14:14:54;94914.34;;;18.35;33.54
70902;BME280;58548;47.210;8.618;2023-02-19T14:31:01;94901.91;;;18.35;32.99
70902;BME280;58548;47.210;8.618;2023-02-19T14:33:33;95020.06;;;19.11;33.21
70902;BME280;58548;47.210;8.618;2023-02-19T14:36:29;95020.84;;;19.11;32.76
70902;BME280;58548;47.210;8.618;2023-02-19T14:39:02;95025.28;;;19.18;33.20
70902;BME280;58548;47.210;8.618;2023-02-19T14:41:37;94897.00;;;18.39;33.22
70902;BME280;58548;47.210;8.618;2023-02-19T14:44:29;94937.44;;;18.65;32.35
70902;BME280;58548;47.210;8.618;2023-02-19T14:47:03;95025.72;;;19.14;32.82
70902;BME280;58548;47.210;8.618;2023-02-19T14:49:51;95020.13;;;19.04;33.31
70902;BME280;58548;47.210;8.618;2023-02-19T14:52:44;95030.34;;;19.01;32.98
70902;BME280;58548;47.210;8.618;2023-02-19T14:57:48;95016.97;;;18.89;32.84
70902;BME280;58548;47.210;8.618;2023-02-19T15:00:28;94977.56;;;18.62;33.07
70902;BME280;58548;47.210;8.618;2023-02-19T15:02:56;95021.13;;;18.84;33.06
70902;BME280;58548;47.210;8.618;2023-02-19T15:05:27;94917.09;;;18.21;32.64
70902;BME280;58548;47.210;8.618;2023-02-19T15:07:57;94922.00;;;18.18;33.28
70902;BME280;58548;47.210;8.618;2023-02-19T15:10:29;94931.78;;;18.17;33.38
70902;BME280;58548;47.210;8.618;2023-02-19T15:13:05;94990.56;;;18.63;33.21
70902;BME280;58548;47.210;8.618;2023-02-19T15:15:44;95008.22;;;18.69;32.51
70902;BME280;58548;47.210;8.618;2023-02-19T15:18:19;94995.31;;;18.54;33.05
70902;BME280;58548;47.210;8.618;2023-02-19T15:20:49;94937.31;;;18.09;33.06
70902;BME280;58548;47.210;8.618;2023-02-19T15:23:28;95031.69;;;18.59;33.16
70902;BME280;58548;47.210;8.618;2023-02-19T15:25:58;95038.91;;;18.52;33.62
70902;BME280;58548;47.210;8.618;2023-02-19T15:31:14;95034.84;;;18.49;33.06